Terminal Aerodrome Forecast
Issued by NWS

Home | Current Version | Previous Version | Text Only | Print | Product List | Glossary On
Versions: 1 2 3 4 5 6 7 8 9 10 11 12 13 14
000
FTUS44 KOHX 301120
TAFCKV
TAF
KCKV 301120Z 3012/3112 16003KT P6SM VCSH OVC100
     FM301500 18008KT P6SM VCSH BKN050 OVC100
     FM301900 18007KT P6SM BKN100
     FM310700 12002KT 5SM BR SCT100
      TEMPO 3109/3112 2SM BR=

USA.gov is the U.S. government's official web portal to all federal, state and local government web resources and services.